createdAt,value
2018-08-09T00:00:15.325Z,996.6
2018-08-09T00:03:15.648Z,996.7
2018-08-09T00:06:14.933Z,996.7
2018-08-09T00:09:16.121Z,996.6
2018-08-09T00:12:16.143Z,996.6
2018-08-09T00:15:15.970Z,996.6
2018-08-09T00:18:15.689Z,996.6
2018-08-09T00:21:15.375Z,996.6
2018-08-09T00:24:16.172Z,996.6
2018-08-09T00:27:15.792Z,996.4
2018-08-09T00:30:15.507Z,996.5
2018-08-09T00:33:15.965Z,996.5
2018-08-09T00:36:15.757Z,996.5
2018-08-09T00:39:15.593Z,996.4
2018-08-09T00:42:15.139Z,996.5
2018-08-09T00:45:15.572Z,996.4
2018-08-09T00:48:15.181Z,996.3
2018-08-09T00:51:15.727Z,996.3
2018-08-09T00:54:15.134Z,996.3
2018-08-09T00:57:16.086Z,996.3
2018-08-09T01:00:14.947Z,996.3
2018-08-09T01:03:15.891Z,996.3
2018-08-09T01:06:15.601Z,996.2
2018-08-09T01:09:15.077Z,996.2
2018-08-09T01:12:16.180Z,996.2
2018-08-09T01:15:15.872Z,996.2
2018-08-09T01:18:16.042Z,996.1
2018-08-09T01:21:15.738Z,996.2
2018-08-09T01:24:15.284Z,996.2
2018-08-09T01:27:15.768Z,996.2
2018-08-09T01:30:15.406Z,996.2
2018-08-09T01:33:15.110Z,996.2
2018-08-09T01:36:15.976Z,996.2
2018-08-09T01:39:15.716Z,996.2
2018-08-09T01:42:15.561Z,996.1
2018-08-09T01:45:15.505Z,996.2
2018-08-09T01:48:16.250Z,996.1
2018-08-09T01:51:15.062Z,996.1
2018-08-09T01:54:15.586Z,996.1
2018-08-09T01:57:14.982Z,996.0
2018-08-09T02:00:15.864Z,996.1
2018-08-09T02:03:15.927Z,996.1
2018-08-09T02:06:15.619Z,996.0
2018-08-09T02:09:15.516Z,996.0
2018-08-09T02:12:16.065Z,995.9
2018-08-09T02:15:16.076Z,995.8
2018-08-09T02:18:15.838Z,995.8
2018-08-09T02:21:15.493Z,995.7
2018-08-09T02:24:15.902Z,995.6
2018-08-09T02:27:15.805Z,995.6
2018-08-09T02:30:15.041Z,995.6
2018-08-09T02:33:15.521Z,995.7
2018-08-09T02:36:15.959Z,995.6
2018-08-09T02:39:15.489Z,995.6
2018-08-09T02:42:16.081Z,995.6
2018-08-09T02:45:15.853Z,995.6
2018-08-09T02:48:15.453Z,995.6
2018-08-09T02:51:16.074Z,995.6
2018-08-09T02:54:15.538Z,995.6
2018-08-09T02:57:15.987Z,995.6
2018-08-09T03:00:15.161Z,995.6
2018-08-09T03:03:15.820Z,995.6
2018-08-09T03:06:15.225Z,995.6
2018-08-09T03:09:15.926Z,995.6
2018-08-09T03:12:15.336Z,995.6
2018-08-09T03:15:16.103Z,995.6
2018-08-09T03:18:15.705Z,995.7
2018-08-09T03:21:15.135Z,995.6
2018-08-09T03:24:15.643Z,995.5
2018-08-09T03:27:15.087Z,995.6
2018-08-09T03:30:15.580Z,995.6
2018-08-09T03:33:15.978Z,995.6
2018-08-09T03:36:15.254Z,995.5
2018-08-09T03:39:15.545Z,995.5
2018-08-09T03:42:15.816Z,995.5
2018-08-09T03:45:15.023Z,995.4
2018-08-09T03:48:15.367Z,995.4
2018-08-09T03:51:15.709Z,995.4
2018-08-09T03:54:14.971Z,995.4
2018-08-09T03:57:15.152Z,995.4
2018-08-09T04:00:15.303Z,995.3
2018-08-09T04:03:15.737Z,995.3
2018-08-09T04:06:15.990Z,995.4
2018-08-09T04:09:15.485Z,995.4
2018-08-09T04:12:15.722Z,995.4
2018-08-09T04:15:15.096Z,995.4
2018-08-09T04:18:15.486Z,995.4
2018-08-09T04:21:15.853Z,995.4
2018-08-09T04:24:15.093Z,995.4
2018-08-09T04:27:15.819Z,995.3
2018-08-09T04:30:15.056Z,995.4
2018-08-09T04:33:15.294Z,995.5
2018-08-09T04:36:15.627Z,995.5
2018-08-09T04:39:15.003Z,995.5
2018-08-09T04:42:15.164Z,995.5
2018-08-09T04:45:15.539Z,995.6
2018-08-09T04:48:15.813Z,995.6
2018-08-09T04:51:15.247Z,995.6
2018-08-09T04:54:15.573Z,995.6
2018-08-09T04:57:15.003Z,995.6
2018-08-09T05:00:15.561Z,995.5
2018-08-09T05:03:15.962Z,995.6
2018-08-09T05:06:15.399Z,995.7
2018-08-09T05:09:15.774Z,995.7
2018-08-09T05:12:15.041Z,995.7
2018-08-09T05:15:15.405Z,995.7
2018-08-09T05:18:15.702Z,995.7
2018-08-09T05:21:15.892Z,995.7
2018-08-09T05:24:25.456Z,995.6
2018-08-09T05:27:15.247Z,995.5
2018-08-09T05:30:15.612Z,995.5
2018-08-09T05:33:15.802Z,995.5
2018-08-09T05:36:15.140Z,995.5
2018-08-09T05:39:15.411Z,995.5
2018-08-09T05:42:15.821Z,995.5
2018-08-09T05:45:16.069Z,995.6
2018-08-09T05:48:15.412Z,995.5
2018-08-09T05:51:15.579Z,995.5
2018-08-09T05:54:15.810Z,995.5
2018-08-09T05:57:15.184Z,995.5
2018-08-09T06:00:15.479Z,995.5
2018-08-09T06:03:15.772Z,995.4
2018-08-09T06:06:15.071Z,995.3
2018-08-09T06:09:15.405Z,995.2
2018-08-09T06:12:15.674Z,995.2
2018-08-09T06:15:15.927Z,995.1
2018-08-09T06:18:15.313Z,995.3
2018-08-09T06:21:15.600Z,995.3
2018-08-09T06:24:15.964Z,995.2
2018-08-09T06:27:15.222Z,995.2
2018-08-09T06:30:20.545Z,995.0
2018-08-09T06:33:15.986Z,994.9
2018-08-09T06:36:15.211Z,994.8
2018-08-09T06:39:15.095Z,994.7
2018-08-09T06:42:15.372Z,994.7
2018-08-09T06:45:15.710Z,994.6
2018-08-09T06:48:14.979Z,994.7
2018-08-09T06:51:15.309Z,994.7
2018-08-09T06:54:15.639Z,994.7
2018-08-09T06:57:15.829Z,994.7
2018-08-09T07:00:15.105Z,994.7
2018-08-09T07:03:15.415Z,994.7
2018-08-09T07:06:15.823Z,994.5
2018-08-09T07:09:15.114Z,994.6
2018-08-09T07:12:15.488Z,994.5
2018-08-09T07:15:15.689Z,994.5
2018-08-09T07:18:15.051Z,994.5
2018-08-09T07:21:15.435Z,994.5
2018-08-09T07:24:15.701Z,994.4
2018-08-09T07:27:15.984Z,994.4
2018-08-09T07:30:15.247Z,994.4
2018-08-09T07:33:15.945Z,994.3
2018-08-09T07:36:15.131Z,994.3
2018-08-09T07:39:15.355Z,994.4
2018-08-09T07:42:15.686Z,994.3
2018-08-09T07:45:16.091Z,994.3
2018-08-09T07:48:15.337Z,994.3
2018-08-09T07:51:15.644Z,994.3
2018-08-09T07:54:16.021Z,994.2
2018-08-09T07:57:15.366Z,994.3
2018-08-09T08:00:15.050Z,994.3
2018-08-09T08:03:15.295Z,994.3
2018-08-09T08:06:15.583Z,994.4
2018-08-09T08:09:15.940Z,994.5
2018-08-09T08:12:15.115Z,994.4
2018-08-09T08:15:15.296Z,994.4
2018-08-09T08:18:15.745Z,994.3
2018-08-09T08:21:15.218Z,994.3
2018-08-09T08:24:15.910Z,994.3
2018-08-09T08:27:15.669Z,994.2
2018-08-09T08:30:15.576Z,994.2
2018-08-09T08:33:16.319Z,994.1
2018-08-09T08:36:16.152Z,994.1
2018-08-09T08:39:15.332Z,994.0
2018-08-09T08:42:16.326Z,994.1
2018-08-09T08:45:16.282Z,994.1
2018-08-09T08:48:15.754Z,994.0
2018-08-09T08:51:15.465Z,994.0
2018-08-09T08:54:16.192Z,994.1
2018-08-09T08:57:16.090Z,993.9
2018-08-09T09:00:15.750Z,993.9
2018-08-09T09:03:15.317Z,993.8
2018-08-09T09:06:15.966Z,993.9
2018-08-09T09:09:16.297Z,994.0
2018-08-09T09:12:15.495Z,994.0
2018-08-09T09:15:16.197Z,994.1
2018-08-09T09:18:16.179Z,994.0
2018-08-09T09:21:15.951Z,994.0
2018-08-09T09:24:15.778Z,993.9
2018-08-09T09:27:15.511Z,993.8
2018-08-09T09:30:16.143Z,993.8
2018-08-09T09:33:15.934Z,993.8
2018-08-09T09:36:15.601Z,993.7
2018-08-09T09:39:16.332Z,993.7
2018-08-09T09:42:15.967Z,993.7
2018-08-09T09:45:15.790Z,993.6
2018-08-09T09:48:15.650Z,993.5
2018-08-09T09:51:15.312Z,993.4
2018-08-09T09:54:15.983Z,993.3
2018-08-09T09:57:15.625Z,993.2
2018-08-09T10:00:16.393Z,993.1
2018-08-09T10:03:16.323Z,993.0
2018-08-09T10:06:16.062Z,992.8
2018-08-09T10:09:16.127Z,992.7
2018-08-09T10:12:16.419Z,992.7
2018-08-09T10:15:17.104Z,992.6
2018-08-09T10:18:16.817Z,992.5
2018-08-09T10:21:16.778Z,992.5
2018-08-09T10:24:16.701Z,992.4
2018-08-09T10:27:16.799Z,992.4
2018-08-09T10:30:17.210Z,992.5
2018-08-09T10:33:17.920Z,992.5
2018-08-09T10:36:17.398Z,992.4
2018-08-09T10:39:17.237Z,992.4
2018-08-09T10:42:18.303Z,992.4
2018-08-09T10:45:18.269Z,992.3
2018-08-09T10:48:19.041Z,992.4
2018-08-09T10:51:18.342Z,992.4
2018-08-09T10:54:17.527Z,992.3
2018-08-09T10:57:17.417Z,992.4
2018-08-09T11:00:17.512Z,992.3
2018-08-09T11:03:17.572Z,992.1
2018-08-09T11:06:17.524Z,992.2
2018-08-09T11:09:17.406Z,992.0
2018-08-09T11:12:16.867Z,991.9
2018-08-09T11:15:16.440Z,991.8
2018-08-09T11:18:17.053Z,991.8
2018-08-09T11:21:16.338Z,991.7
2018-08-09T11:24:16.725Z,991.7
2018-08-09T11:27:16.595Z,991.6
2018-08-09T11:30:17.571Z,991.5
2018-08-09T11:33:16.512Z,991.4
2018-08-09T11:36:17.776Z,991.3
2018-08-09T11:39:16.998Z,991.3
2018-08-09T11:42:16.647Z,991.1
2018-08-09T11:45:16.723Z,991.1
2018-08-09T11:48:15.380Z,991.1
2018-08-09T11:51:16.084Z,991.1
2018-08-09T11:54:15.626Z,991.1
2018-08-09T11:57:16.377Z,991.1
2018-08-09T12:00:16.083Z,991.1
2018-08-09T12:03:15.751Z,991.1
2018-08-09T12:06:15.544Z,991.0
2018-08-09T12:09:16.225Z,991.0
2018-08-09T12:12:15.885Z,991.0
2018-08-09T12:15:15.575Z,990.8
2018-08-09T12:18:15.462Z,990.8
2018-08-09T12:21:16.140Z,990.8
2018-08-09T12:24:15.733Z,990.6
2018-08-09T12:27:15.380Z,990.5
2018-08-09T12:30:16.200Z,990.7
2018-08-09T12:33:16.020Z,990.8
2018-08-09T12:36:15.827Z,991.0
2018-08-09T12:39:15.749Z,991.1
2018-08-09T12:42:15.654Z,991.0
2018-08-09T12:45:16.349Z,991.0
2018-08-09T12:48:16.042Z,992.6
2018-08-09T12:51:15.829Z,993.0
2018-08-09T12:54:15.573Z,992.8
2018-08-09T12:57:16.141Z,993.7
2018-08-09T13:00:15.717Z,993.7
2018-08-09T13:03:15.355Z,993.8
2018-08-09T13:06:15.829Z,994.3
2018-08-09T13:09:15.114Z,994.4
2018-08-09T13:12:15.280Z,994.1
2018-08-09T13:15:15.382Z,993.9
2018-08-09T13:18:15.649Z,994.1
2018-08-09T13:21:15.005Z,994.1
2018-08-09T13:24:15.098Z,994.1
2018-08-09T13:27:15.273Z,994.0
2018-08-09T13:30:15.699Z,994.2
2018-08-09T13:33:14.908Z,993.8
2018-08-09T13:36:14.963Z,993.5
2018-08-09T13:39:15.163Z,993.4
2018-08-09T13:42:15.354Z,993.4
2018-08-09T13:45:15.559Z,993.4
2018-08-09T13:48:15.811Z,993.3
2018-08-09T13:51:14.952Z,993.3
2018-08-09T13:54:15.207Z,993.4
2018-08-09T13:57:15.583Z,993.3
2018-08-09T14:00:15.778Z,993.3
2018-08-09T14:03:15.160Z,993.3
2018-08-09T14:06:15.565Z,993.3
2018-08-09T14:09:15.793Z,993.3
2018-08-09T14:12:14.886Z,993.3
2018-08-09T14:15:15.119Z,993.3
2018-08-09T14:18:15.360Z,993.4
2018-08-09T14:21:15.549Z,993.4
2018-08-09T14:24:15.788Z,993.5
2018-08-09T14:27:15.018Z,993.6
2018-08-09T14:30:15.224Z,993.6
2018-08-09T14:33:15.344Z,993.8
2018-08-09T14:36:15.607Z,993.9
2018-08-09T14:39:15.911Z,993.8
2018-08-09T14:42:15.215Z,993.9
2018-08-09T14:45:15.519Z,993.9
2018-08-09T14:48:15.825Z,994.1
2018-08-09T14:51:15.167Z,994.3
2018-08-09T14:54:15.699Z,994.6
2018-08-09T14:57:15.833Z,994.6
2018-08-09T15:00:15.171Z,994.6
2018-08-09T15:03:15.407Z,994.5
2018-08-09T15:06:15.788Z,994.4
2018-08-09T15:09:15.054Z,994.6
2018-08-09T15:12:15.253Z,994.7
2018-08-09T15:15:15.526Z,994.5
2018-08-09T15:18:15.780Z,994.4
2018-08-09T15:21:15.143Z,994.4
2018-08-09T15:24:15.499Z,994.4
2018-08-09T15:27:15.993Z,994.3
2018-08-09T15:30:15.847Z,994.4
2018-08-09T15:33:15.367Z,994.5
2018-08-09T15:36:15.609Z,994.6
2018-08-09T15:39:15.945Z,994.6
2018-08-09T15:42:15.095Z,994.5
2018-08-09T15:45:15.282Z,994.6
2018-08-09T15:48:15.517Z,994.7
2018-08-09T15:51:15.956Z,994.7
2018-08-09T15:54:15.227Z,994.8
2018-08-09T15:57:15.403Z,994.7
2018-08-09T16:00:15.609Z,994.8
2018-08-09T16:03:15.914Z,994.8
2018-08-09T16:06:15.044Z,994.8
2018-08-09T16:09:15.387Z,994.8
2018-08-09T16:12:15.586Z,994.9
2018-08-09T16:15:15.776Z,994.7
2018-08-09T16:18:15.083Z,994.7
2018-08-09T16:21:15.443Z,994.7
2018-08-09T16:24:15.747Z,994.6
2018-08-09T16:27:15.052Z,994.7
2018-08-09T16:30:15.722Z,994.6
2018-08-09T16:33:15.667Z,994.6
2018-08-09T16:36:15.830Z,994.6
2018-08-09T16:39:15.219Z,994.6
2018-08-09T16:42:15.520Z,994.6
2018-08-09T16:45:14.933Z,994.6
2018-08-09T16:48:15.813Z,994.5
2018-08-09T16:51:14.993Z,994.5
2018-08-09T16:54:15.163Z,994.5
2018-08-09T16:57:15.480Z,994.5
2018-08-09T17:00:15.724Z,994.4
2018-08-09T17:03:15.149Z,994.4
2018-08-09T17:06:15.525Z,994.4
2018-08-09T17:09:15.760Z,994.4
2018-08-09T17:12:15.000Z,994.4
2018-08-09T17:15:15.184Z,994.3
2018-08-09T17:18:15.017Z,994.5
2018-08-09T17:21:15.292Z,994.5
2018-08-09T17:24:15.945Z,994.5
2018-08-09T17:27:15.223Z,994.6
2018-08-09T17:30:15.406Z,994.6
2018-08-09T17:33:14.977Z,994.5
2018-08-09T17:36:15.315Z,994.5
2018-08-09T17:39:15.603Z,994.5
2018-08-09T17:42:15.841Z,994.4
2018-08-09T17:45:15.383Z,994.7
2018-08-09T17:48:15.771Z,994.7
2018-08-09T17:51:14.932Z,994.8
2018-08-09T17:54:15.155Z,994.8
2018-08-09T17:57:15.481Z,994.8
2018-08-09T18:00:15.812Z,994.8
2018-08-09T18:03:15.752Z,994.8
2018-08-09T18:06:15.221Z,994.8
2018-08-09T18:09:15.517Z,994.8
2018-08-09T18:12:15.822Z,994.8
2018-08-09T18:15:15.148Z,994.9
2018-08-09T18:18:15.749Z,995.0
2018-08-09T18:21:14.952Z,994.9
2018-08-09T18:24:15.300Z,994.9
2018-08-09T18:27:15.569Z,995.0
2018-08-09T18:30:15.818Z,995.2
2018-08-09T18:33:15.070Z,995.3
2018-08-09T18:36:15.411Z,995.3
2018-08-09T18:39:15.709Z,995.3
2018-08-09T18:42:15.976Z,995.4
2018-08-09T18:45:15.234Z,995.5
2018-08-09T18:48:15.753Z,995.5
2018-08-09T18:51:14.945Z,995.5
2018-08-09T18:54:15.141Z,995.5
2018-08-09T18:57:15.431Z,995.6
2018-08-09T19:12:15.620Z,995.7
2018-08-09T19:15:14.987Z,995.7
2018-08-09T19:18:15.426Z,995.9
2018-08-09T19:21:15.729Z,995.9
2018-08-09T19:24:16.007Z,995.9
2018-08-09T19:27:15.350Z,995.9
2018-08-09T19:30:15.617Z,996.0
2018-08-09T19:33:15.878Z,995.9
2018-08-09T19:36:15.056Z,995.9
2018-08-09T19:39:15.294Z,996.0
2018-08-09T19:42:15.612Z,996.0
2018-08-09T19:45:15.775Z,996.1
2018-08-09T19:48:15.903Z,996.2
2018-08-09T19:51:15.289Z,996.2
2018-08-09T19:54:15.477Z,996.4
2018-08-09T19:57:15.758Z,996.3
2018-08-09T20:00:15.086Z,996.4
2018-08-09T20:03:15.536Z,996.5
2018-08-09T20:06:15.646Z,996.4
2018-08-09T20:09:15.882Z,996.5
2018-08-09T20:12:15.217Z,996.5
2018-08-09T20:15:15.445Z,996.4
2018-08-09T20:18:15.689Z,996.6
2018-08-09T20:21:15.847Z,996.6
2018-08-09T20:24:15.121Z,996.7
2018-08-09T20:27:15.270Z,996.7
2018-08-09T20:30:15.504Z,996.8
2018-08-09T20:33:15.751Z,996.8
2018-08-09T20:36:15.410Z,996.9
2018-08-09T20:39:15.764Z,997.1
2018-08-09T20:42:15.215Z,997.0
2018-08-09T20:45:15.482Z,997.1
2018-08-09T20:48:15.492Z,997.2
2018-08-09T20:51:15.716Z,997.2
2018-08-09T20:54:15.805Z,997.2
2018-08-09T20:57:15.111Z,997.2
2018-08-09T21:00:15.304Z,997.3
2018-08-09T21:03:15.352Z,997.3
2018-08-09T21:06:15.591Z,997.3
2018-08-09T21:09:15.734Z,997.2
2018-08-09T21:12:15.924Z,997.3
2018-08-09T21:15:15.305Z,997.4
2018-08-09T21:18:15.653Z,997.3
2018-08-09T21:21:15.849Z,997.4
2018-08-09T21:24:15.116Z,997.4
2018-08-09T21:27:15.645Z,997.6
2018-08-09T21:30:15.908Z,997.6
2018-08-09T21:33:15.409Z,997.6
2018-08-09T21:36:15.592Z,997.7
2018-08-09T21:39:15.739Z,997.7
2018-08-09T21:42:15.955Z,997.7
2018-08-09T21:45:15.216Z,997.8
2018-08-09T21:48:15.397Z,997.9
2018-08-09T21:51:15.503Z,998.0
2018-08-09T21:54:15.682Z,998.1
2018-08-09T21:57:15.934Z,998.1
2018-08-09T22:00:15.075Z,998.2
2018-08-09T22:03:15.048Z,998.2
2018-08-09T22:06:15.540Z,998.3
2018-08-09T22:09:15.128Z,998.3
2018-08-09T22:12:15.393Z,998.3
2018-08-09T22:15:15.589Z,998.2
2018-08-09T22:18:15.759Z,998.3
2018-08-09T22:21:14.983Z,998.4
2018-08-09T22:24:15.782Z,998.5
2018-08-09T22:27:14.968Z,998.5
2018-08-09T22:30:15.183Z,998.5
2018-08-09T22:33:15.440Z,998.7
2018-08-09T22:36:15.718Z,998.8
2018-08-09T22:39:14.894Z,998.9
2018-08-09T22:42:14.992Z,999.0
2018-08-09T22:45:15.176Z,999.0
2018-08-09T22:48:15.398Z,999.0
2018-08-09T22:51:15.443Z,999.2
2018-08-09T22:54:15.723Z,999.2
2018-08-09T22:57:14.912Z,999.3
2018-08-09T23:00:15.133Z,999.3
2018-08-09T23:03:15.286Z,999.4
2018-08-09T23:06:15.563Z,999.5
2018-08-09T23:09:14.867Z,999.5
2018-08-09T23:12:15.113Z,999.6
2018-08-09T23:15:15.265Z,999.6
2018-08-09T23:18:15.672Z,999.7
2018-08-09T23:21:15.827Z,999.7
2018-08-09T23:24:15.002Z,999.8
2018-08-09T23:27:15.151Z,999.8
2018-08-09T23:30:15.486Z,999.9
2018-08-09T23:33:15.603Z,999.9
2018-08-09T23:36:15.383Z,999.9
2018-08-09T23:39:15.659Z,1000.0
2018-08-09T23:42:15.840Z,1000.0
2018-08-09T23:45:14.912Z,999.9
2018-08-09T23:48:15.049Z,1000.0
2018-08-09T23:51:15.299Z,1000.1
2018-08-09T23:54:15.524Z,1000.2
2018-08-09T23:57:15.597Z,1000.3
